sensor_id;sensor_type;location;lat;lon;timestamp;P1;durP1;ratioP1;P2;durP2;ratioP2
56321;SDS011;42227;6.376;-10.782;2023-06-05T00:01:05;14.50;;;6.93;;
56321;SDS011;42227;6.376;-10.782;2023-06-05T00:03:34;12.43;;;6.35;;
56321;SDS011;42227;6.376;-10.782;2023-06-05T00:08:34;15.30;;;6.72;;
56321;SDS011;42227;6.376;-10.782;2023-06-05T00:11:03;17.33;;;6.78;;
56321;SDS011;42227;6.376;-10.782;2023-06-05T00:13:32;12.98;;;6.68;;
56321;SDS011;42227;6.376;-10.782;2023-06-05T00:16:00;20.65;;;7.40;;
56321;SDS011;42227;6.376;-10.782;2023-06-05T00:18:29;16.02;;;7.57;;
56321;SDS011;42227;6.376;-10.782;2023-06-05T00:20:58;17.25;;;9.75;;
56321;SDS011;42227;6.376;-10.782;2023-06-05T00:23:27;10.98;;;6.22;;
56321;SDS011;42227;6.376;-10.782;2023-06-05T00:25:56;24.60;;;4.95;;
56321;SDS011;42227;6.376;-10.782;2023-06-05T00:28:25;11.70;;;4.30;;
56321;SDS011;42227;6.376;-10.782;2023-06-05T00:30:54;7.70;;;5.25;;
56321;SDS011;42227;6.376;-10.782;2023-06-05T00:33:24;7.47;;;4.95;;
56321;SDS011;42227;6.376;-10.782;2023-06-05T00:35:53;9.25;;;5.25;;
56321;SDS011;42227;6.376;-10.782;2023-06-05T00:38:23;7.70;;;4.95;;
56321;SDS011;42227;6.376;-10.782;2023-06-05T00:40:52;8.10;;;5.50;;
56321;SDS011;42227;6.376;-10.782;2023-06-05T00:43:21;15.48;;;4.88;;
56321;SDS011;42227;6.376;-10.782;2023-06-05T00:45:50;14.05;;;5.47;;
56321;SDS011;42227;6.376;-10.782;2023-06-05T00:48:24;11.13;;;5.80;;
56321;SDS011;42227;6.376;-10.782;2023-06-05T00:50:53;12.82;;;4.90;;
56321;SDS011;42227;6.376;-10.782;2023-06-05T00:53:23;18.63;;;5.72;;
56321;SDS011;42227;6.376;-10.782;2023-06-05T00:55:52;11.60;;;5.30;;
56321;SDS011;42227;6.376;-10.782;2023-06-05T00:58:21;15.00;;;5.68;;
56321;SDS011;42227;6.376;-10.782;2023-06-05T01:00:50;10.32;;;5.63;;
56321;SDS011;42227;6.376;-10.782;2023-06-05T01:03:18;10.50;;;5.63;;
56321;SDS011;42227;6.376;-10.782;2023-06-05T01:05:49;19.25;;;6.20;;
56321;SDS011;42227;6.376;-10.782;2023-06-05T01:08:17;14.55;;;5.72;;
56321;SDS011;42227;6.376;-10.782;2023-06-05T01:10:46;23.50;;;5.75;;
56321;SDS011;42227;6.376;-10.782;2023-06-05T01:13:19;13.57;;;5.50;;
56321;SDS011;42227;6.376;-10.782;2023-06-05T01:15:52;18.35;;;6.13;;
56321;SDS011;42227;6.376;-10.782;2023-06-05T01:18:22;17.42;;;6.43;;
56321;SDS011;42227;6.376;-10.782;2023-06-05T01:20:51;11.93;;;4.35;;
56321;SDS011;42227;6.376;-10.782;2023-06-05T01:23:20;9.93;;;4.50;;
56321;SDS011;42227;6.376;-10.782;2023-06-05T01:25:48;13.07;;;4.93;;
56321;SDS011;42227;6.376;-10.782;2023-06-05T01:28:19;11.05;;;5.70;;
56321;SDS011;42227;6.376;-10.782;2023-06-05T01:33:33;15.38;;;5.55;;
56321;SDS011;42227;6.376;-10.782;2023-06-05T01:36:05;6.82;;;4.80;;
56321;SDS011;42227;6.376;-10.782;2023-06-05T01:38:34;12.65;;;6.05;;
56321;SDS011;42227;6.376;-10.782;2023-06-05T01:41:03;14.35;;;5.55;;
56321;SDS011;42227;6.376;-10.782;2023-06-05T01:43:33;11.90;;;5.32;;
56321;SDS011;42227;6.376;-10.782;2023-06-05T01:46:03;20.73;;;7.93;;
56321;SDS011;42227;6.376;-10.782;2023-06-05T01:48:33;13.40;;;6.90;;
56321;SDS011;42227;6.376;-10.782;2023-06-05T01:51:03;12.73;;;5.50;;
56321;SDS011;42227;6.376;-10.782;2023-06-05T01:53:31;13.40;;;5.97;;
56321;SDS011;42227;6.376;-10.782;2023-06-05T01:56:01;12.40;;;6.95;;
56321;SDS011;42227;6.376;-10.782;2023-06-05T01:58:30;11.65;;;6.15;;
56321;SDS011;42227;6.376;-10.782;2023-06-05T02:00:59;16.85;;;6.93;;
56321;SDS011;42227;6.376;-10.782;2023-06-05T02:03:27;11.77;;;6.68;;
56321;SDS011;42227;6.376;-10.782;2023-06-05T02:05:56;30.73;;;7.07;;
56321;SDS011;42227;6.376;-10.782;2023-06-05T02:08:25;19.02;;;6.88;;
56321;SDS011;42227;6.376;-10.782;2023-06-05T02:10:53;15.93;;;7.30;;
56321;SDS011;42227;6.376;-10.782;2023-06-05T02:13:22;14.13;;;6.57;;
56321;SDS011;42227;6.376;-10.782;2023-06-05T02:15:51;9.82;;;6.82;;
56321;SDS011;42227;6.376;-10.782;2023-06-05T02:18:19;16.65;;;7.13;;
56321;SDS011;42227;6.376;-10.782;2023-06-05T02:20:50;10.45;;;5.53;;
56321;SDS011;42227;6.376;-10.782;2023-06-05T02:23:22;24.00;;;7.50;;
56321;SDS011;42227;6.376;-10.782;2023-06-05T02:25:50;14.05;;;6.75;;
56321;SDS011;42227;6.376;-10.782;2023-06-05T02:28:19;14.82;;;6.93;;
56321;SDS011;42227;6.376;-10.782;2023-06-05T02:30:47;12.27;;;5.13;;
56321;SDS011;42227;6.376;-10.782;2023-06-05T02:33:16;12.82;;;4.80;;
56321;SDS011;42227;6.376;-10.782;2023-06-05T02:35:44;11.48;;;5.72;;
56321;SDS011;42227;6.376;-10.782;2023-06-05T02:38:13;13.13;;;5.07;;
56321;SDS011;42227;6.376;-10.782;2023-06-05T02:40:42;13.60;;;5.95;;
56321;SDS011;42227;6.376;-10.782;2023-06-05T02:43:10;9.27;;;5.55;;
56321;SDS011;42227;6.376;-10.782;2023-06-05T02:45:38;14.57;;;4.82;;
56321;SDS011;42227;6.376;-10.782;2023-06-05T02:48:08;12.73;;;5.22;;
56321;SDS011;42227;6.376;-10.782;2023-06-05T02:50:36;8.75;;;4.40;;
56321;SDS011;42227;6.376;-10.782;2023-06-05T02:53:07;9.40;;;5.60;;
56321;SDS011;42227;6.376;-10.782;2023-06-05T02:55:36;12.77;;;5.93;;
56321;SDS011;42227;6.376;-10.782;2023-06-05T02:58:10;12.90;;;6.82;;
56321;SDS011;42227;6.376;-10.782;2023-06-05T03:00:47;11.20;;;5.68;;
56321;SDS011;42227;6.376;-10.782;2023-06-05T03:03:15;20.85;;;7.70;;
56321;SDS011;42227;6.376;-10.782;2023-06-05T03:05:47;13.90;;;7.95;;
56321;SDS011;42227;6.376;-10.782;2023-06-05T03:08:17;15.68;;;8.43;;
56321;SDS011;42227;6.376;-10.782;2023-06-05T03:10:46;27.73;;;9.70;;
56321;SDS011;42227;6.376;-10.782;2023-06-05T03:13:15;19.50;;;11.32;;
56321;SDS011;42227;6.376;-10.782;2023-06-05T03:15:44;17.92;;;10.18;;
56321;SDS011;42227;6.376;-10.782;2023-06-05T03:18:15;17.00;;;11.98;;
56321;SDS011;42227;6.376;-10.782;2023-06-05T03:20:44;15.63;;;11.25;;
56321;SDS011;42227;6.376;-10.782;2023-06-05T03:23:13;16.17;;;11.15;;
56321;SDS011;42227;6.376;-10.782;2023-06-05T03:25:41;19.92;;;11.57;;
56321;SDS011;42227;6.376;-10.782;2023-06-05T03:28:10;26.90;;;12.15;;
56321;SDS011;42227;6.376;-10.782;2023-06-05T03:30:39;13.60;;;11.60;;
56321;SDS011;42227;6.376;-10.782;2023-06-05T03:33:09;20.02;;;13.05;;
56321;SDS011;42227;6.376;-10.782;2023-06-05T03:35:39;17.65;;;11.13;;
56321;SDS011;42227;6.376;-10.782;2023-06-05T03:38:10;22.67;;;14.02;;
56321;SDS011;42227;6.376;-10.782;2023-06-05T03:40:41;21.33;;;13.95;;
56321;SDS011;42227;6.376;-10.782;2023-06-05T03:45:42;14.95;;;12.23;;
56321;SDS011;42227;6.376;-10.782;2023-06-05T03:48:11;21.60;;;12.02;;
56321;SDS011;42227;6.376;-10.782;2023-06-05T03:50:42;23.85;;;10.65;;
56321;SDS011;42227;6.376;-10.782;2023-06-05T03:53:10;18.25;;;9.52;;
56321;SDS011;42227;6.376;-10.782;2023-06-05T03:55:40;26.40;;;11.85;;
56321;SDS011;42227;6.376;-10.782;2023-06-05T03:58:15;20.00;;;11.68;;
56321;SDS011;42227;6.376;-10.782;2023-06-05T04:00:54;17.52;;;11.80;;
56321;SDS011;42227;6.376;-10.782;2023-06-05T04:03:23;19.08;;;10.93;;
56321;SDS011;42227;6.376;-10.782;2023-06-05T04:05:54;15.68;;;10.82;;
56321;SDS011;42227;6.376;-10.782;2023-06-05T04:08:23;19.75;;;12.75;;
56321;SDS011;42227;6.376;-10.782;2023-06-05T04:10:52;25.48;;;11.80;;
56321;SDS011;42227;6.376;-10.782;2023-06-05T04:13:21;14.07;;;10.63;;
56321;SDS011;42227;6.376;-10.782;2023-06-05T04:15:50;19.05;;;11.38;;
56321;SDS011;42227;6.376;-10.782;2023-06-05T04:18:20;15.90;;;9.60;;
56321;SDS011;42227;6.376;-10.782;2023-06-05T04:20:51;15.48;;;10.68;;
56321;SDS011;42227;6.376;-10.782;2023-06-05T04:23:20;15.05;;;10.13;;
56321;SDS011;42227;6.376;-10.782;2023-06-05T04:25:48;16.83;;;10.00;;
56321;SDS011;42227;6.376;-10.782;2023-06-05T04:28:17;13.85;;;10.63;;
56321;SDS011;42227;6.376;-10.782;2023-06-05T04:30:45;21.10;;;12.23;;
56321;SDS011;42227;6.376;-10.782;2023-06-05T04:33:17;23.77;;;10.43;;
56321;SDS011;42227;6.376;-10.782;2023-06-05T04:35:46;17.50;;;9.43;;
56321;SDS011;42227;6.376;-10.782;2023-06-05T04:38:15;24.02;;;9.57;;
56321;SDS011;42227;6.376;-10.782;2023-06-05T04:40:43;16.27;;;10.93;;
56321;SDS011;42227;6.376;-10.782;2023-06-05T04:43:12;17.45;;;10.95;;
56321;SDS011;42227;6.376;-10.782;2023-06-05T04:45:42;25.30;;;10.23;;
56321;SDS011;42227;6.376;-10.782;2023-06-05T04:48:11;13.13;;;11.00;;
56321;SDS011;42227;6.376;-10.782;2023-06-05T04:50:39;31.65;;;11.98;;
56321;SDS011;42227;6.376;-10.782;2023-06-05T04:53:10;12.98;;;10.63;;
56321;SDS011;42227;6.376;-10.782;2023-06-05T04:55:40;12.02;;;9.93;;
56321;SDS011;42227;6.376;-10.782;2023-06-05T04:58:09;22.75;;;11.25;;
56321;SDS011;42227;6.376;-10.782;2023-06-05T05:00:38;21.73;;;11.98;;
56321;SDS011;42227;6.376;-10.782;2023-06-05T05:03:07;19.55;;;12.30;;
56321;SDS011;42227;6.376;-10.782;2023-06-05T05:05:37;22.85;;;15.88;;
56321;SDS011;42227;6.376;-10.782;2023-06-05T05:08:05;28.48;;;14.68;;
56321;SDS011;42227;6.376;-10.782;2023-06-05T05:10:34;22.13;;;10.90;;
56321;SDS011;42227;6.376;-10.782;2023-06-05T05:13:03;25.17;;;11.20;;
56321;SDS011;42227;6.376;-10.782;2023-06-05T05:15:32;19.83;;;11.35;;
56321;SDS011;42227;6.376;-10.782;2023-06-05T05:18:01;16.75;;;10.13;;
56321;SDS011;42227;6.376;-10.782;2023-06-05T05:20:31;16.80;;;9.10;;
56321;SDS011;42227;6.376;-10.782;2023-06-05T05:23:00;15.13;;;9.30;;
56321;SDS011;42227;6.376;-10.782;2023-06-05T05:25:28;15.60;;;9.93;;
56321;SDS011;42227;6.376;-10.782;2023-06-05T05:27:57;21.67;;;11.82;;
56321;SDS011;42227;6.376;-10.782;2023-06-05T05:30:26;14.20;;;9.65;;
56321;SDS011;42227;6.376;-10.782;2023-06-05T05:32:54;16.83;;;10.90;;
56321;SDS011;42227;6.376;-10.782;2023-06-05T05:35:23;23.63;;;11.38;;
56321;SDS011;42227;6.376;-10.782;2023-06-05T05:37:51;20.30;;;10.50;;
56321;SDS011;42227;6.376;-10.782;2023-06-05T05:40:20;16.85;;;12.60;;
56321;SDS011;42227;6.376;-10.782;2023-06-05T05:42:49;17.38;;;12.18;;
56321;SDS011;42227;6.376;-10.782;2023-06-05T05:45:18;15.82;;;11.00;;
56321;SDS011;42227;6.376;-10.782;2023-06-05T05:47:47;12.95;;;10.00;;
56321;SDS011;42227;6.376;-10.782;2023-06-05T05:50:15;20.40;;;11.93;;
56321;SDS011;42227;6.376;-10.782;2023-06-05T05:52:44;18.77;;;11.90;;
56321;SDS011;42227;6.376;-10.782;2023-06-05T05:55:12;16.25;;;10.43;;
56321;SDS011;42227;6.376;-10.782;2023-06-05T05:57:41;19.73;;;12.45;;
56321;SDS011;42227;6.376;-10.782;2023-06-05T06:00:10;18.30;;;12.15;;
56321;SDS011;42227;6.376;-10.782;2023-06-05T06:02:39;28.27;;;12.88;;
56321;SDS011;42227;6.376;-10.782;2023-06-05T06:05:08;42.42;;;24.40;;
56321;SDS011;42227;6.376;-10.782;2023-06-05T06:07:37;25.52;;;20.85;;
56321;SDS011;42227;6.376;-10.782;2023-06-05T06:10:05;35.55;;;18.63;;
56321;SDS011;42227;6.376;-10.782;2023-06-05T06:12:34;30.27;;;19.10;;
56321;SDS011;42227;6.376;-10.782;2023-06-05T06:15:04;28.15;;;16.52;;
56321;SDS011;42227;6.376;-10.782;2023-06-05T06:17:33;28.92;;;15.68;;
56321;SDS011;42227;6.376;-10.782;2023-06-05T06:20:03;26.52;;;16.05;;
56321;SDS011;42227;6.376;-10.782;2023-06-05T06:22:33;26.43;;;17.17;;
56321;SDS011;42227;6.376;-10.782;2023-06-05T06:25:02;35.13;;;16.85;;
56321;SDS011;42227;6.376;-10.782;2023-06-05T06:27:31;37.40;;;17.13;;
56321;SDS011;42227;6.376;-10.782;2023-06-05T06:30:02;29.80;;;17.17;;
56321;SDS011;42227;6.376;-10.782;2023-06-05T06:32:31;30.75;;;16.83;;
56321;SDS011;42227;6.376;-10.782;2023-06-05T06:35:00;24.70;;;14.75;;
56321;SDS011;42227;6.376;-10.782;2023-06-05T06:37:29;17.73;;;14.15;;
56321;SDS011;42227;6.376;-10.782;2023-06-05T06:39:57;26.80;;;14.85;;
56321;SDS011;42227;6.376;-10.782;2023-06-05T06:42:26;26.65;;;17.00;;
56321;SDS011;42227;6.376;-10.782;2023-06-05T06:45:07;33.97;;;17.52;;
56321;SDS011;42227;6.376;-10.782;2023-06-05T06:47:36;29.67;;;19.90;;
56321;SDS011;42227;6.376;-10.782;2023-06-05T06:50:04;29.00;;;20.58;;
56321;SDS011;42227;6.376;-10.782;2023-06-05T06:52:33;42.60;;;23.77;;
56321;SDS011;42227;6.376;-10.782;2023-06-05T06:55:01;50.03;;;20.20;;
56321;SDS011;42227;6.376;-10.782;2023-06-05T06:57:30;23.50;;;14.90;;
56321;SDS011;42227;6.376;-10.782;2023-06-05T06:59:59;21.40;;;13.93;;
56321;SDS011;42227;6.376;-10.782;2023-06-05T07:02:28;28.73;;;15.57;;
56321;SDS011;42227;6.376;-10.782;2023-06-05T07:04:57;33.75;;;17.80;;
56321;SDS011;42227;6.376;-10.782;2023-06-05T07:07:25;20.95;;;13.95;;
56321;SDS011;42227;6.376;-10.782;2023-06-05T07:09:54;21.15;;;15.05;;
56321;SDS011;42227;6.376;-10.782;2023-06-05T07:12:22;25.23;;;13.20;;
56321;SDS011;42227;6.376;-10.782;2023-06-05T07:14:51;23.35;;;15.68;;
56321;SDS011;42227;6.376;-10.782;2023-06-05T07:17:20;22.33;;;16.13;;
56321;SDS011;42227;6.376;-10.782;2023-06-05T07:19:49;24.02;;;15.85;;
56321;SDS011;42227;6.376;-10.782;2023-06-05T07:22:17;29.10;;;13.10;;
56321;SDS011;42227;6.376;-10.782;2023-06-05T07:24:46;19.02;;;12.82;;
56321;SDS011;42227;6.376;-10.782;2023-06-05T07:27:16;27.95;;;15.02;;
56321;SDS011;42227;6.376;-10.782;2023-06-05T07:29:45;28.70;;;14.32;;
56321;SDS011;42227;6.376;-10.782;2023-06-05T07:32:17;31.90;;;12.40;;
56321;SDS011;42227;6.376;-10.782;2023-06-05T07:34:46;18.55;;;12.27;;
56321;SDS011;42227;6.376;-10.782;2023-06-05T07:37:15;19.85;;;12.05;;
56321;SDS011;42227;6.376;-10.782;2023-06-05T07:39:43;20.17;;;15.27;;
56321;SDS011;42227;6.376;-10.782;2023-06-05T07:42:12;23.05;;;12.02;;
56321;SDS011;42227;6.376;-10.782;2023-06-05T07:44:42;17.02;;;12.57;;
56321;SDS011;42227;6.376;-10.782;2023-06-05T07:47:11;21.52;;;14.23;;
56321;SDS011;42227;6.376;-10.782;2023-06-05T07:49:39;17.73;;;13.38;;
56321;SDS011;42227;6.376;-10.782;2023-06-05T07:52:08;22.27;;;14.90;;
56321;SDS011;42227;6.376;-10.782;2023-06-05T07:54:36;23.42;;;14.70;;
56321;SDS011;42227;6.376;-10.782;2023-06-05T07:57:05;22.65;;;16.45;;
56321;SDS011;42227;6.376;-10.782;2023-06-05T07:59:33;20.80;;;16.63;;
56321;SDS011;42227;6.376;-10.782;2023-06-05T08:02:02;18.63;;;14.05;;
56321;SDS011;42227;6.376;-10.782;2023-06-05T08:04:31;31.77;;;18.63;;
56321;SDS011;42227;6.376;-10.782;2023-06-05T08:07:00;20.63;;;18.42;;
56321;SDS011;42227;6.376;-10.782;2023-06-05T08:09:29;15.07;;;11.85;;
56321;SDS011;42227;6.376;-10.782;2023-06-05T08:11:57;22.85;;;13.15;;
56321;SDS011;42227;6.376;-10.782;2023-06-05T08:14:26;18.55;;;12.73;;
56321;SDS011;42227;6.376;-10.782;2023-06-05T08:16:55;26.70;;;13.07;;
56321;SDS011;42227;6.376;-10.782;2023-06-05T08:19:23;20.83;;;11.10;;
56321;SDS011;42227;6.376;-10.782;2023-06-05T08:21:52;21.10;;;12.90;;
56321;SDS011;42227;6.376;-10.782;2023-06-05T08:36:19;18.70;;;12.73;;
56321;SDS011;42227;6.376;-10.782;2023-06-05T08:38:48;16.00;;;11.65;;
56321;SDS011;42227;6.376;-10.782;2023-06-05T08:41:17;15.63;;;11.38;;
56321;SDS011;42227;6.376;-10.782;2023-06-05T08:43:49;14.73;;;10.45;;
56321;SDS011;42227;6.376;-10.782;2023-06-05T08:46:18;20.63;;;9.43;;
56321;SDS011;42227;6.376;-10.782;2023-06-05T08:48:48;12.30;;;9.85;;
56321;SDS011;42227;6.376;-10.782;2023-06-05T08:51:17;23.40;;;9.57;;
56321;SDS011;42227;6.376;-10.782;2023-06-05T08:54:02;13.02;;;8.55;;
56321;SDS011;42227;6.376;-10.782;2023-06-05T08:56:39;10.32;;;8.55;;
56321;SDS011;42227;6.376;-10.782;2023-06-05T08:59:10;14.48;;;9.85;;
56321;SDS011;42227;6.376;-10.782;2023-06-05T09:01:41;17.45;;;9.05;;
56321;SDS011;42227;6.376;-10.782;2023-06-05T09:04:10;20.98;;;9.70;;
56321;SDS011;42227;6.376;-10.782;2023-06-05T09:06:38;14.60;;;9.43;;
56321;SDS011;42227;6.376;-10.782;2023-06-05T09:09:07;18.45;;;10.63;;
56321;SDS011;42227;6.376;-10.782;2023-06-05T09:11:38;19.33;;;11.25;;
56321;SDS011;42227;6.376;-10.782;2023-06-05T09:14:06;13.20;;;10.18;;
56321;SDS011;42227;6.376;-10.782;2023-06-05T09:16:36;14.75;;;9.88;;
56321;SDS011;42227;6.376;-10.782;2023-06-05T09:19:06;31.85;;;12.32;;
56321;SDS011;42227;6.376;-10.782;2023-06-05T09:21:35;16.63;;;11.55;;
56321;SDS011;42227;6.376;-10.782;2023-06-05T09:29:21;18.73;;;11.50;;
56321;SDS011;42227;6.376;-10.782;2023-06-05T09:31:50;23.67;;;11.10;;
56321;SDS011;42227;6.376;-10.782;2023-06-05T09:34:21;23.80;;;10.07;;
56321;SDS011;42227;6.376;-10.782;2023-06-05T09:36:51;17.23;;;10.75;;
56321;SDS011;42227;6.376;-10.782;2023-06-05T09:39:20;38.20;;;11.38;;
56321;SDS011;42227;6.376;-10.782;2023-06-05T09:41:49;16.65;;;9.02;;
56321;SDS011;42227;6.376;-10.782;2023-06-05T09:44:18;20.65;;;8.60;;
56321;SDS011;42227;6.376;-10.782;2023-06-05T09:46:50;11.73;;;8.50;;
56321;SDS011;42227;6.376;-10.782;2023-06-05T09:49:25;14.30;;;9.63;;
56321;SDS011;42227;6.376;-10.782;2023-06-05T09:51:56;12.95;;;9.13;;
56321;SDS011;42227;6.376;-10.782;2023-06-05T09:54:27;14.95;;;8.63;;
56321;SDS011;42227;6.376;-10.782;2023-06-05T09:57:00;19.45;;;7.63;;
56321;SDS011;42227;6.376;-10.782;2023-06-05T09:59:31;12.30;;;7.43;;
56321;SDS011;42227;6.376;-10.782;2023-06-05T10:02:06;37.55;;;9.73;;
56321;SDS011;42227;6.376;-10.782;2023-06-05T10:04:38;11.20;;;7.20;;
56321;SDS011;42227;6.376;-10.782;2023-06-05T10:07:10;14.25;;;6.05;;
56321;SDS011;42227;6.376;-10.782;2023-06-05T10:09:40;13.80;;;5.93;;
56321;SDS011;42227;6.376;-10.782;2023-06-05T10:12:13;14.57;;;5.72;;
56321;SDS011;42227;6.376;-10.782;2023-06-05T10:14:43;9.32;;;5.03;;
56321;SDS011;42227;6.376;-10.782;2023-06-05T10:17:11;13.18;;;5.20;;
56321;SDS011;42227;6.376;-10.782;2023-06-05T10:19:41;17.13;;;6.05;;
56321;SDS011;42227;6.376;-10.782;2023-06-05T10:22:11;18.08;;;10.57;;
56321;SDS011;42227;6.376;-10.782;2023-06-05T10:25:03;9.93;;;5.20;;
56321;SDS011;42227;6.376;-10.782;2023-06-05T10:27:43;11.82;;;5.85;;
56321;SDS011;42227;6.376;-10.782;2023-06-05T10:33:38;8.10;;;5.53;;
56321;SDS011;42227;6.376;-10.782;2023-06-05T10:36:33;10.50;;;5.07;;
56321;SDS011;42227;6.376;-10.782;2023-06-05T10:39:15;10.00;;;4.32;;
56321;SDS011;42227;6.376;-10.782;2023-06-05T10:41:44;27.13;;;6.22;;
56321;SDS011;42227;6.376;-10.782;2023-06-05T10:44:13;8.95;;;3.65;;
56321;SDS011;42227;6.376;-10.782;2023-06-05T10:46:41;13.73;;;5.80;;
56321;SDS011;42227;6.376;-10.782;2023-06-05T10:49:10;24.25;;;5.80;;
56321;SDS011;42227;6.376;-10.782;2023-06-05T10:51:40;16.63;;;5.50;;
56321;SDS011;42227;6.376;-10.782;2023-06-05T10:54:14;14.13;;;4.77;;
56321;SDS011;42227;6.376;-10.782;2023-06-05T10:59:30;8.77;;;5.22;;
56321;SDS011;42227;6.376;-10.782;2023-06-05T11:07:18;8.85;;;4.18;;
56321;SDS011;42227;6.376;-10.782;2023-06-05T11:10:03;22.05;;;4.65;;
56321;SDS011;42227;6.376;-10.782;2023-06-05T11:17:56;12.15;;;5.03;;
56321;SDS011;42227;6.376;-10.782;2023-06-05T11:23:13;8.70;;;4.00;;
56321;SDS011;42227;6.376;-10.782;2023-06-05T11:25:42;7.25;;;3.67;;
56321;SDS011;42227;6.376;-10.782;2023-06-05T11:28:10;10.55;;;2.70;;
56321;SDS011;42227;6.376;-10.782;2023-06-05T11:35:46;4.83;;;3.00;;
56321;SDS011;42227;6.376;-10.782;2023-06-05T11:40:51;13.25;;;4.10;;
56321;SDS011;42227;6.376;-10.782;2023-06-05T11:43:21;10.73;;;3.63;;
56321;SDS011;42227;6.376;-10.782;2023-06-05T11:45:51;7.00;;;2.90;;
56321;SDS011;42227;6.376;-10.782;2023-06-05T11:48:21;7.63;;;2.22;;
56321;SDS011;42227;6.376;-10.782;2023-06-05T11:50:55;11.35;;;3.42;;
56321;SDS011;42227;6.376;-10.782;2023-06-05T11:53:31;9.80;;;3.03;;
56321;SDS011;42227;6.376;-10.782;2023-06-05T11:56:01;5.63;;;3.00;;
56321;SDS011;42227;6.376;-10.782;2023-06-05T11:58:40;3.92;;;2.53;;
56321;SDS011;42227;6.376;-10.782;2023-06-05T12:03:41;3.88;;;2.40;;
56321;SDS011;42227;6.376;-10.782;2023-06-05T12:06:11;8.37;;;3.60;;
56321;SDS011;42227;6.376;-10.782;2023-06-05T12:08:40;8.77;;;3.97;;
56321;SDS011;42227;6.376;-10.782;2023-06-05T12:11:19;5.30;;;2.45;;
56321;SDS011;42227;6.376;-10.782;2023-06-05T12:13:53;10.73;;;3.75;;
56321;SDS011;42227;6.376;-10.782;2023-06-05T12:16:30;9.33;;;4.60;;
56321;SDS011;42227;6.376;-10.782;2023-06-05T12:19:01;4.20;;;2.63;;
56321;SDS011;42227;6.376;-10.782;2023-06-05T12:21:41;6.10;;;2.85;;
56321;SDS011;42227;6.376;-10.782;2023-06-05T12:24:11;19.63;;;3.35;;
56321;SDS011;42227;6.376;-10.782;2023-06-05T12:27:14;9.80;;;3.58;;
56321;SDS011;42227;6.376;-10.782;2023-06-05T12:29:36;9.15;;;3.00;;
56321;SDS011;42227;6.376;-10.782;2023-06-05T12:32:19;5.55;;;2.53;;
56321;SDS011;42227;6.376;-10.782;2023-06-05T12:34:50;5.47;;;3.55;;
56321;SDS011;42227;6.376;-10.782;2023-06-05T12:39:55;7.70;;;3.65;;
56321;SDS011;42227;6.376;-10.782;2023-06-05T12:42:24;7.18;;;3.65;;
56321;SDS011;42227;6.376;-10.782;2023-06-05T12:44:53;6.88;;;3.05;;
56321;SDS011;42227;6.376;-10.782;2023-06-05T12:47:22;8.00;;;3.10;;
56321;SDS011;42227;6.376;-10.782;2023-06-05T12:49:51;10.68;;;5.88;;
56321;SDS011;42227;6.376;-10.782;2023-06-05T12:52:19;10.00;;;4.13;;
56321;SDS011;42227;6.376;-10.782;2023-06-05T12:54:48;5.63;;;3.25;;
56321;SDS011;42227;6.376;-10.782;2023-06-05T12:57:16;13.93;;;6.88;;
56321;SDS011;42227;6.376;-10.782;2023-06-05T12:59:45;6.43;;;3.20;;
56321;SDS011;42227;6.376;-10.782;2023-06-05T13:02:15;8.77;;;4.05;;
56321;SDS011;42227;6.376;-10.782;2023-06-05T13:04:44;9.43;;;4.05;;
56321;SDS011;42227;6.376;-10.782;2023-06-05T13:07:12;7.68;;;4.97;;
56321;SDS011;42227;6.376;-10.782;2023-06-05T13:09:41;15.40;;;5.45;;
56321;SDS011;42227;6.376;-10.782;2023-06-05T13:12:10;10.88;;;4.32;;
56321;SDS011;42227;6.376;-10.782;2023-06-05T13:14:44;10.57;;;4.15;;
56321;SDS011;42227;6.376;-10.782;2023-06-05T13:17:13;5.32;;;3.38;;
56321;SDS011;42227;6.376;-10.782;2023-06-05T13:19:41;8.90;;;3.70;;
56321;SDS011;42227;6.376;-10.782;2023-06-05T13:22:10;10.70;;;4.88;;
56321;SDS011;42227;6.376;-10.782;2023-06-05T13:24:39;19.88;;;3.63;;
56321;SDS011;42227;6.376;-10.782;2023-06-05T13:27:08;6.03;;;3.08;;
56321;SDS011;42227;6.376;-10.782;2023-06-05T13:29:36;6.25;;;2.90;;
56321;SDS011;42227;6.376;-10.782;2023-06-05T13:32:04;8.60;;;3.33;;
56321;SDS011;42227;6.376;-10.782;2023-06-05T13:34:33;9.32;;;2.42;;
56321;SDS011;42227;6.376;-10.782;2023-06-05T13:37:02;9.93;;;3.17;;
56321;SDS011;42227;6.376;-10.782;2023-06-05T13:39:40;13.90;;;7.18;;
56321;SDS011;42227;6.376;-10.782;2023-06-05T13:42:11;12.20;;;4.00;;
56321;SDS011;42227;6.376;-10.782;2023-06-05T13:47:08;10.73;;;3.28;;
56321;SDS011;42227;6.376;-10.782;2023-06-05T13:49:37;9.55;;;2.80;;
56321;SDS011;42227;6.376;-10.782;2023-06-05T13:52:05;6.15;;;2.58;;
56321;SDS011;42227;6.376;-10.782;2023-06-05T13:54:34;9.57;;;4.20;;
56321;SDS011;42227;6.376;-10.782;2023-06-05T13:57:02;5.85;;;2.60;;
56321;SDS011;42227;6.376;-10.782;2023-06-05T13:59:31;4.68;;;3.17;;
56321;SDS011;42227;6.376;-10.782;2023-06-05T14:01:59;5.13;;;2.47;;
56321;SDS011;42227;6.376;-10.782;2023-06-05T14:04:28;5.90;;;2.35;;
56321;SDS011;42227;6.376;-10.782;2023-06-05T14:06:57;2.28;;;1.77;;
56321;SDS011;42227;6.376;-10.782;2023-06-05T14:09:26;3.05;;;2.13;;
56321;SDS011;42227;6.376;-10.782;2023-06-05T14:11:55;11.05;;;3.67;;
56321;SDS011;42227;6.376;-10.782;2023-06-05T14:14:24;3.35;;;2.30;;
56321;SDS011;42227;6.376;-10.782;2023-06-05T14:16:55;2.90;;;1.88;;
56321;SDS011;42227;6.376;-10.782;2023-06-05T14:19:24;5.72;;;2.58;;
56321;SDS011;42227;6.376;-10.782;2023-06-05T14:21:53;18.27;;;2.75;;
56321;SDS011;42227;6.376;-10.782;2023-06-05T14:24:23;10.73;;;3.78;;
56321;SDS011;42227;6.376;-10.782;2023-06-05T14:26:52;18.27;;;2.28;;
56321;SDS011;42227;6.376;-10.782;2023-06-05T14:29:21;7.88;;;1.80;;
56321;SDS011;42227;6.376;-10.782;2023-06-05T14:31:50;12.57;;;3.72;;
56321;SDS011;42227;6.376;-10.782;2023-06-05T14:34:19;4.32;;;3.60;;
56321;SDS011;42227;6.376;-10.782;2023-06-05T14:36:47;8.93;;;7.20;;
56321;SDS011;42227;6.376;-10.782;2023-06-05T14:39:16;7.43;;;3.65;;
56321;SDS011;42227;6.376;-10.782;2023-06-05T14:41:45;13.25;;;5.18;;
56321;SDS011;42227;6.376;-10.782;2023-06-05T14:44:14;6.95;;;3.30;;
56321;SDS011;42227;6.376;-10.782;2023-06-05T14:46:52;8.13;;;4.07;;
56321;SDS011;42227;6.376;-10.782;2023-06-05T14:49:23;13.27;;;3.35;;
56321;SDS011;42227;6.376;-10.782;2023-06-05T14:51:51;4.60;;;2.88;;
56321;SDS011;42227;6.376;-10.782;2023-06-05T14:54:20;9.32;;;3.65;;
56321;SDS011;42227;6.376;-10.782;2023-06-05T14:56:48;8.95;;;3.47;;
56321;SDS011;42227;6.376;-10.782;2023-06-05T14:59:17;14.30;;;4.65;;
56321;SDS011;42227;6.376;-10.782;2023-06-05T15:01:50;9.63;;;4.60;;
56321;SDS011;42227;6.376;-10.782;2023-06-05T15:04:19;5.88;;;3.60;;
56321;SDS011;42227;6.376;-10.782;2023-06-05T15:06:48;9.98;;;3.97;;
56321;SDS011;42227;6.376;-10.782;2023-06-05T15:09:17;12.18;;;4.57;;
56321;SDS011;42227;6.376;-10.782;2023-06-05T15:11:45;10.90;;;4.32;;
56321;SDS011;42227;6.376;-10.782;2023-06-05T15:14:14;7.85;;;3.80;;
56321;SDS011;42227;6.376;-10.782;2023-06-05T15:16:43;14.57;;;4.75;;
56321;SDS011;42227;6.376;-10.782;2023-06-05T15:19:12;11.65;;;4.53;;
56321;SDS011;42227;6.376;-10.782;2023-06-05T15:21:41;18.92;;;5.13;;
56321;SDS011;42227;6.376;-10.782;2023-06-05T15:24:10;7.88;;;4.05;;
56321;SDS011;42227;6.376;-10.782;2023-06-05T15:26:39;8.32;;;3.67;;
56321;SDS011;42227;6.376;-10.782;2023-06-05T15:29:09;5.63;;;3.47;;
56321;SDS011;42227;6.376;-10.782;2023-06-05T15:31:38;11.23;;;5.43;;
56321;SDS011;42227;6.376;-10.782;2023-06-05T15:34:07;8.65;;;4.10;;
56321;SDS011;42227;6.376;-10.782;2023-06-05T15:36:35;12.43;;;3.85;;